Historyczne dane pomiarowe

Dodano dane terminowe – wersja testowa.

Dane z okresu 1951-2019

Wersja bazy: 1.34 [2019-03-16, lista zmian], aktualizacja planowana na 2019-04-15

Dane meteo z obszaru Polski uzyskane na podstawie danych udostępnionych przez Instytut Meteorologii i Gospodarki Wodnej – Państwowy Instytut Badawczy.

 

Wybierz Datę:    

       

TemperaturaWilgotnośćWiatrCiśnienieOpadyŚniegCzas trwania zjawisk
 Stacja t tx tn tng RH VA  wxwx mslp ppp RRR   cm mm wxwxwxwxwxwxwx
2012-07-16 16.5 22.3 12.5--- 5.7----- 0.0------------
2012-07-17 14.4 18.9 8.4--- 2.0----- 0.6------------
2012-07-18 15.3 19.8 9.7--- 6.7----- 1.1------------
2012-07-19 19.4 27.6 13.0--- 3.3----- 4.8------------
2012-07-20 17.7 23.8 11.4--- 3.7----- 0.9------------
2012-07-21 15.7 18.8 13.1--- 5.7----- 0.4------------
2012-07-22 16.6 21.3 10.8--- 5.0----- 0.0------------
2012-07-23 18.0 24.1 9.3--- 0.7----- 0.0------------
2012-07-24 19.8 26.7 9.5--- 0.0----- 0.0------------
2012-07-25 22.2 29.5 13.1--- 5.3----- 0.4------------
2012-07-26 21.8 28.0 17.8--- 7.7----- 0.2------------
2012-07-27 24.4 31.9 15.9--- 2.7----- 0.0------------
2012-07-28 25.0 32.8 15.8--- 0.0----- 0.0------------
2012-07-29 24.7 32.3 17.6--- 3.3----- 33.5------------
2012-07-30 19.6 23.9 15.2--- 6.0----- 2.9------------
2012-07-31 21.2 26.0 15.4--- 4.3----- 0.0------------
2012-08-01 20.6 27.3 12.9--- 3.7----- 0.0------------
2012-08-02 22.8 29.6 14.1--- 1.0----- 0.0------------
2012-08-03 24.0 32.1 15.7--- 0.0----- 0.0------------
2012-08-04 22.1 26.8 17.5--- 2.7----- 0.0------------
2012-08-05 23.6 29.8 15.7--- 4.3----- 0.3------------
2012-08-06 26.4 34.6 18.0--- 0.0----- 0.0------------
2012-08-07 21.0 28.2 17.2--- 4.0----- 0.0------------
2012-08-08 17.8 23.6 11.2--- 2.7----- 0.0------------
2012-08-09 15.0 22.5 8.6--- 2.3----- 1.0------------
2012-08-10 15.2 20.6 11.1--- 2.3----- 0.0------------
2012-08-11 14.3 18.5 11.1--- 5.0----- 0.0------------
2012-08-12 14.2 19.6 10.1--- 8.0----- 8.4------------
2012-08-13 12.9 14.7 11.2--- 8.0----- 21.5------------
2012-08-14 11.0 13.5 4.5--- 8.0----- 13.4------------
159.1 ms

 

Źródłem pochodzenia danych jest Instytut Meteorologii i Gospodarki Wodnej – Państwowy Instytut Badawczy. Dane Instytutu Meteorologii i Gospodarki Wodnej – Państwowego Instytutu Badawczego zostały przetworzone.

Dane źródłowe można odnaleźć na stronie https://dane.imgw.pl